Farnborough, Britanniarum Regnum

10:31 AM BST die 24o October, anno 2014 (GMT +0100)
Farnborough | Change Station
CLOSE
Current Station
Airport
Location: Farnborough,
Elevation: 213 ft
Nearby Weather Stations

Elev 213 ft 51.28 °N, 0.77 °W | Updated 11 minutes ago

Scattered Clouds
Nubes Dispersae
57 °F
Feels Like 57 °F
N
8
Ventus Variabilis Ventus from Magis Auster quam Zephyrus

Hodie
High -- | Low -- °F
--% Chance of Precip.
Yesterday
High -- | Low -- °F
Precip. -- in
7:41 AM 5:51 PM
New, 0% visible
Pressio 29.98 in
Visibilitas 6.2 milia passuum
Clouds Nubes Dispersae 900 ft
Frigus in quo Ros apparet 55 °F
Umor 94%
Rainfall 0.00 in
Snow Depth Not available.
UV 1 out of 12
Pollen Not available.
Air Quality Not available.
Flu Activity Not available.
METAR EGLF 240920Z 21007KT 9999 SCT009 14/13 Q1015

More Conditions Fewer Conditions

Pressio 29.98 in
Visibilitas 6.2 milia passuum
Clouds Nubes Dispersae 900 ft
Frigus in quo Ros apparet 55 °F
Umor 94%
Rainfall 0.00 in
Snow Depth Not available.
UV 1 out of 12
Pollen Not available.
Air Quality Not available.
Flu Activity Not available.
METAR EGLF 240920Z 21007KT 9999 SCT009 14/13 Q1015

More Conditions Fewer Conditions

10-Day Weather Forecast

Almanac

Astronomy

Oct. 24, 2014 Rise Set
Actual Time 7:41 AM BST 5:51 PM BST
Civil Twilight 7:07 AM BST 6:26 PM BST
Nautical Twilight 6:28 AM BST 7:04 PM BST
Astronomical Twilight 5:50 AM BST 7:43 PM BST
Moon 8:08 AM BST 6:17 PM BST
Length Of Visible Light 11h 18m
Length of Day
10h 10m
Tomorrow will be 3m 42s shorter.
New, 0% of the Moon is Illuminated
Hodie
New
Oct 30
First Quarter
Nov 6
Full
Nov 14
Last Quarter
Nov 22
New

Yesterday's Extremes

Country Highs Country Lows

Community

WunderPhotos

Upload Photos

1,764,513 photos uploaded!

WunderBlogs® & News

Nearby

Snow Depth

Not available.

Earthquake Activity

City Distance Mag. Time & Date
No recent earthquake activity has been reported nearby.
Minimum magnitude displayed is 2.5.

Coastal Water Temperatures

Locus Calor
No Stations Reporting

Nearby Weather Stations